Scottville, Michigan
Current Conditions -  °F | °C
As of 8:14 AM on Friday 28 Nov 2014 (Local Time) from KLDM Reporting Station
Overcast Overcast  
Wind Chill: 19°   Ceiling: 2700
Heat Index: 19°   Visibility: 10mi
Dew Point: 16°   Wind: 3mph
Humidity: 87%   Direction: 140°SE
Pressure: 30.26"   Gusts: NA
Location:  43.95°N, 86.28°W
Report Text: KLDM 281314Z AUTO 14003KT 10SM BKN027 OVC033 M07/M09 A3026 RMK AO2 T10701088
Loading
Personal Weather Stations






























Interactive Weather Map New forecast layout! Learn more

10-Day Weather Forecast

Advertisements
Track Severe Weather on mobile